Share

Gifu, Japan

IAICHINA3 Elev 52 ft | 35.13 °N, 136.94 °E | Change Station

Current weather conditions updated 1 second ago

Rain
Rain Mist
63.0 °F
Feels Like 63.0 °F
N
4.6
Wind Variable Wind from ENE
Gusts 4.6 mph
Sunrise 5:13 AM
Sunset 6:30 PM
Moon Waning Gibbous

Tomorrow is forecast to be Much Warmer than today.

Pressure 29.86 in
Visibility 1.9 miles
Clouds Few 200 ft
Mostly Cloudy 500 ft
Mostly Cloudy 1000 ft
Dew Point 62 °F
Humidity 97%
Rainfall 0.67 in
Snow Depth Not available.
UV 0.0 out of 16
Pollen Not available.
Air Quality Not available.
Flu Activity Not available.
METAR RJGG 210730Z 11010KT 3000 RA BR FEW002 BKN005 BKN010 15/15 Q1011 TEMPO 4000 SHRA BR FEW005 BKN008

More Conditions Fewer Conditions

Pressure 29.86 in
Visibility 1.9 miles
Clouds Few 200 ft
Mostly Cloudy 500 ft
Mostly Cloudy 1000 ft
Dew Point 62 °F
Humidity 97%
Rainfall 0.67 in
Snow Depth Not available.
UV 0.0 out of 16
Pollen Not available.
Air Quality Not available.
Flu Activity Not available.
METAR RJGG 210730Z 11010KT 3000 RA BR FEW002 BKN005 BKN010 15/15 Q1011 TEMPO 4000 SHRA BR FEW005 BKN008

More Conditions Fewer Conditions

10-Day Weather Forecast

Almanac

Astronomy

Apr. 21, 2014 Rise Set
Actual Time 5:13 AM JST 6:30 PM JST
Civil Twilight 4:47 AM JST 6:56 PM JST
Nautical Twilight 4:15 AM JST 7:28 PM JST
Astronomical Twilight 3:42 AM JST 8:01 PM JST
Moon No Moon Rise 10:02 AM JST
Length of Visible Light 14h 09m
Length of Day
13h 16m
Tomorrow will be 2m 3s longer.
Waning Gibbous, 61% of the Moon is Illuminated
Today
Waning Gibbous
Apr 22
Last Quarter
Apr 29
New
May 6
First Quarter
May 14
Full

Yesterday's Extremes

Country Highs Country Lows

Community

  • Snowy Robin
    Snowy Robin
  • Sun Pillar and Geese
    Sun Pillar and Geese
  • Showers on the Way
    Showers on the Way
  • Easter Morning Fog
    Easter Morning Fog
  • Easter Dance
    Easter Dance

WunderPhotos

Upload Photos

1,703,572 photos uploaded!

WunderBlogs® & News

Nearby

Snow Depth

Not available.

Coastal Water Temperatures

Place Temperature
No Stations Reporting

Earthquake Activity

City Distance Mag. Time & Date
No recent earthquake activity has been reported nearby.
Minimum magnitude displayed is 2.5.

Nearby Weather Stations

Station Location Temp. Dew Point Humidity Wind Precip. Elev Updated Type
Nagoya 63.0 °F 62 °F 97% ENE  at  4.6 mph 0.04 in / hr 52 ft 4:58 PM JST Rapid Fire
Tenpaku Ward,nagoya City, %u540D%u53E4%u5C4B%u5E02 59.9 °F 57 °F 91% ESE  at  2.0 mph 0.02 in / hr 62 ft 4:52 PM JST Normal

Show More Stations Show Fewer Stations

What do you think?

We're not finished. Please let us know what you like, what you don't like, and what you are still missing.